Time;durP1;ratioP1;P1;durP2;ratioP2;P2;SDS_P1;SDS_P2;PMS_P1;PMS_P2;Temp;Humidity;BMP_temperature;BMP_pressure;BME280_temperature;BME280_humidity;BME280_pressure;Samples;Min_cycle;Max_cycle;Signal;HPM_P1;HPM_P2
2021/05/05 00:00:57;;;;;;;4.07;3.83;;;10.20;93.90;;;;;;5074287;28;20459;-88
2021/05/05 00:03:23;;;;;;;4.10;3.70;;;10.30;93.90;;;;;;5073377;28;20818;-87
2021/05/05 00:05:49;;;;;;;3.70;3.40;;;10.30;93.60;;;;;;5075634;28;20187;-85
2021/05/05 00:08:14;;;;;;;4.23;3.93;;;10.40;93.70;;;;;;5073287;28;20906;-85
2021/05/05 00:10:40;;;;;;;3.57;3.37;;;10.40;93.50;;;;;;5073370;28;20569;-86
2021/05/05 00:13:06;;;;;;;3.67;3.47;;;10.50;93.40;;;;;;5074022;28;20177;-85
2021/05/05 00:15:32;;;;;;;3.37;3.10;;;10.40;93.30;;;;;;5074397;28;20230;-85
2021/05/05 00:17:57;;;;;;;6.07;4.20;;;10.40;93.50;;;;;;5073224;28;20209;-85
2021/05/05 00:20:23;;;;;;;4.50;4.20;;;10.40;93.70;;;;;;5072886;28;20174;-85
2021/05/05 00:22:50;;;;;;;3.80;3.50;;;10.40;93.50;;;;;;5074692;28;20492;-85
2021/05/05 00:25:19;;;;;;;5.07;3.63;;;10.30;93.60;;;;;;5037113;28;20514;-86
2021/05/05 00:27:45;;;;;;;4.07;3.80;;;10.30;93.70;;;;;;5054508;28;20432;-85
2021/05/05 00:30:12;;;;;;;3.83;3.63;;;10.40;94.00;;;;;;5037170;28;20427;-85
2021/05/05 00:32:38;;;;;;;4.63;4.23;;;10.40;94.00;;;;;;5035265;28;20175;-88
2021/05/05 00:35:06;;;;;;;3.57;3.27;;;10.40;93.90;;;;;;5037065;28;20388;-87
2021/05/05 00:37:31;;;;;;;4.10;3.87;;;10.40;94.00;;;;;;5053860;28;20539;-87
2021/05/05 00:39:57;;;;;;;3.60;3.40;;;10.40;93.90;;;;;;5054479;28;20413;-87
2021/05/05 00:42:23;;;;;;;3.60;3.40;;;10.40;93.70;;;;;;5054812;28;20526;-87
2021/05/05 00:44:49;;;;;;;5.97;3.30;;;10.40;93.70;;;;;;5057180;28;20175;-87
2021/05/05 00:47:16;;;;;;;3.80;3.60;;;10.40;93.60;;;;;;5055604;28;20433;-87
2021/05/05 00:49:42;;;;;;;3.40;3.20;;;10.40;93.60;;;;;;5054758;28;20554;-87
2021/05/05 00:52:09;;;;;;;2.50;2.40;;;10.40;93.40;;;;;;5037620;28;20420;-87
2021/05/05 00:54:34;;;;;;;3.00;2.80;;;10.40;93.20;;;;;;5036248;28;20429;-87
2021/05/05 00:57:01;;;;;;;3.27;2.60;;;10.40;93.20;;;;;;5037943;28;20821;-85
2021/05/05 00:59:27;;;;;;;3.03;2.73;;;10.30;93.00;;;;;;5054938;28;20263;-85
2021/05/05 01:01:53;;;;;;;2.63;2.43;;;10.30;93.20;;;;;;5053775;28;20521;-85
2021/05/05 01:04:20;;;;;;;3.50;3.20;;;10.30;93.10;;;;;;5053993;28;20410;-86
2021/05/05 01:06:50;;;;;;;3.13;2.93;;;10.30;93.70;;;;;;5053959;28;20453;-85
2021/05/05 01:09:16;;;;;;;2.80;2.60;;;10.30;93.40;;;;;;5036446;28;20489;-86
2021/05/05 01:11:42;;;;;;;3.10;2.67;;;10.20;93.10;;;;;;5054269;28;20404;-85
2021/05/05 01:14:08;;;;;;;2.97;2.77;;;10.30;93.30;;;;;;5038356;28;20423;-86
2021/05/05 01:16:34;;;;;;;2.77;2.50;;;10.20;93.20;;;;;;5021505;28;20519;-86
2021/05/05 01:19:00;;;;;;;3.43;3.13;;;10.30;93.20;;;;;;5023363;28;20928;-85
2021/05/05 01:21:25;;;;;;;3.00;2.80;;;10.20;92.90;;;;;;5054039;28;20228;-86
2021/05/05 01:23:51;;;;;;;3.13;2.93;;;10.20;93.30;;;;;;5055120;28;20222;-86
2021/05/05 01:26:17;;;;;;;3.03;2.83;;;10.20;93.00;;;;;;5054015;28;20184;-85
2021/05/05 01:28:44;;;;;;;3.03;2.87;;;10.20;92.90;;;;;;5035192;28;20174;-86
2021/05/05 01:31:13;;;;;;;3.47;3.30;;;10.20;93.20;;;;;;5035990;28;20504;-86
2021/05/05 01:33:40;;;;;;;3.77;3.40;;;10.20;92.90;;;;;;5035817;28;20420;-87
2021/05/05 01:36:07;;;;;;;3.57;3.37;;;10.10;92.90;;;;;;5035963;28;20443;-88
2021/05/05 01:38:33;;;;;;;3.80;3.50;;;10.10;92.90;;;;;;5052439;28;20452;-86
2021/05/05 01:40:59;;;;;;;4.50;4.30;;;10.10;93.10;;;;;;5035780;28;20416;-86
2021/05/05 01:43:25;;;;;;;4.30;4.10;;;10.10;93.00;;;;;;5035107;28;20504;-86
2021/05/05 01:45:51;;;;;;;6.33;4.47;;;10.10;93.10;;;;;;5035324;28;20423;-86
2021/05/05 01:48:18;;;;;;;4.67;4.07;;;10.10;93.00;;;;;;5035619;28;20384;-86
2021/05/05 01:50:45;;;;;;;4.67;4.33;;;10.10;93.10;;;;;;5052778;28;20261;-86
2021/05/05 01:53:12;;;;;;;3.80;3.60;;;10.00;92.80;;;;;;5053345;28;20408;-86
2021/05/05 01:55:38;;;;;;;3.73;3.53;;;9.90;93.50;;;;;;5052263;28;20510;-86
2021/05/05 01:58:04;;;;;;;4.10;3.80;;;9.90;93.70;;;;;;5035463;28;20496;-87
2021/05/05 02:00:31;;;;;;;4.30;3.90;;;9.90;93.80;;;;;;5035354;28;21005;-86
2021/05/05 02:02:57;;;;;;;4.00;3.80;;;10.00;93.40;;;;;;5035706;28;20178;-86
2021/05/05 02:05:23;;;;;;;4.23;3.83;;;10.10;93.30;;;;;;5035354;28;20421;-87
2021/05/05 02:07:49;;;;;;;4.33;3.83;;;10.10;93.00;;;;;;5034257;28;20497;-87
2021/05/05 02:10:17;;;;;;;3.90;3.60;;;10.10;92.90;;;;;;5034554;28;20424;-87
2021/05/05 02:12:43;;;;;;;4.57;3.40;;;10.10;92.90;;;;;;5052080;28;20409;-86
2021/05/05 02:15:11;;;;;;;4.00;3.63;;;10.10;92.60;;;;;;5052565;28;20900;-86
2021/05/05 02:17:38;;;;;;;3.93;3.73;;;10.10;92.50;;;;;;5017643;28;20503;-86
2021/05/05 02:20:09;;;;;;;3.70;3.40;;;10.10;92.60;;;;;;5035045;28;20419;-86
2021/05/05 02:22:35;;;;;;;3.70;3.40;;;10.10;92.80;;;;;;5034300;28;20515;-86
2021/05/05 02:25:01;;;;;;;3.77;3.47;;;10.10;92.50;;;;;;5052532;28;20544;-86
2021/05/05 02:27:27;;;;;;;4.40;4.10;;;10.10;92.50;;;;;;5034492;28;20965;-86
2021/05/05 02:29:53;;;;;;;5.17;4.77;;;10.20;92.80;;;;;;5052064;28;20390;-86
2021/05/05 02:32:24;;;;;;;4.60;4.30;;;10.10;92.80;;;;;;5052570;28;20915;-86
2021/05/05 02:34:51;;;;;;;4.50;4.30;;;10.10;93.10;;;;;;5033734;28;20188;-86
2021/05/05 02:37:17;;;;;;;4.80;4.50;;;10.10;94.10;;;;;;5034788;28;20468;-86
2021/05/05 02:39:44;;;;;;;5.20;4.90;;;10.00;94.60;;;;;;5033266;28;20431;-87
2021/05/05 02:42:13;;;;;;;5.50;5.10;;;9.90;95.70;;;;;;5052528;28;20419;-86
2021/05/05 02:44:40;;;;;;;5.53;5.10;;;9.80;95.60;;;;;;5051638;28;20412;-86
2021/05/05 02:47:06;;;;;;;5.43;5.03;;;9.80;95.80;;;;;;5052651;28;20482;-87
2021/05/05 02:49:32;;;;;;;5.00;4.70;;;9.80;95.90;;;;;;5052183;28;20419;-86
2021/05/05 02:52:01;;;;;;;5.60;5.20;;;9.70;95.90;;;;;;5034790;28;20392;-86
2021/05/05 02:54:29;;;;;;;7.47;4.77;;;9.70;96.10;;;;;;5052375;28;20972;-85
2021/05/05 02:56:55;;;;;;;5.30;4.97;;;9.80;95.90;;;;;;5033737;28;20466;-86
2021/05/05 02:59:21;;;;;;;6.43;5.03;;;9.80;95.60;;;;;;5052571;28;20442;-86
2021/05/05 03:01:46;;;;;;;5.57;5.07;;;9.80;95.70;;;;;;5051470;28;20482;-85
2021/05/05 03:04:12;;;;;;;5.50;5.00;;;9.80;95.60;;;;;;5034552;28;20177;-85
2021/05/05 03:06:38;;;;;;;5.30;4.80;;;9.80;95.40;;;;;;5056119;28;20173;-85
2021/05/05 03:09:05;;;;;;;5.33;5.03;;;9.80;95.40;;;;;;5054001;28;20884;-85
2021/05/05 03:11:31;;;;;;;5.30;4.90;;;9.80;95.20;;;;;;5050723;28;20174;-85
2021/05/05 03:13:57;;;;;;;4.90;4.53;;;9.80;95.10;;;;;;5050925;28;20420;-85
2021/05/05 03:16:23;;;;;;;5.27;4.97;;;9.70;94.80;;;;;;5032595;28;20936;-85
2021/05/05 03:18:51;;;;;;;4.53;4.33;;;9.60;94.80;;;;;;5047904;28;20221;-85
2021/05/05 03:21:17;;;;;;;5.00;4.60;;;9.60;94.90;;;;;;5034200;28;20822;-85
2021/05/05 03:23:43;;;;;;;5.03;4.73;;;9.70;94.60;;;;;;5050893;28;20787;-85
2021/05/05 03:26:09;;;;;;;5.03;4.63;;;9.60;94.50;;;;;;5035843;28;20438;-85
2021/05/05 03:28:35;;;;;;;4.43;4.20;;;9.60;94.50;;;;;;5037198;28;20451;-85
2021/05/05 03:31:00;;;;;;;6.63;5.00;;;9.60;94.50;;;;;;5037761;28;20231;-85
2021/05/05 03:33:26;;;;;;;4.70;4.40;;;9.60;94.70;;;;;;5055824;28;20169;-85
2021/05/05 03:35:52;;;;;;;5.80;5.40;;;9.60;94.70;;;;;;5055548;28;20178;-88
2021/05/05 03:38:18;;;;;;;6.33;5.83;;;9.50;95.00;;;;;;5056192;28;20459;-88
2021/05/05 03:40:44;;;;;;;5.83;5.43;;;9.60;95.20;;;;;;5055681;28;20419;-88
2021/05/05 03:43:10;;;;;;;6.00;5.60;;;9.60;95.10;;;;;;5038375;28;20382;-88
2021/05/05 03:45:36;;;;;;;7.50;6.77;;;9.60;95.10;;;;;;5037745;28;20420;-88
2021/05/05 03:48:02;;;;;;;6.70;6.20;;;9.70;95.20;;;;;;5038083;28;20502;-88
2021/05/05 03:50:28;;;;;;;7.07;6.57;;;9.60;95.20;;;;;;5056152;28;20170;-88
2021/05/05 03:52:54;;;;;;;6.67;6.20;;;9.60;95.40;;;;;;5056187;28;20414;-88
2021/05/05 03:55:20;;;;;;;8.73;8.13;;;9.60;95.40;;;;;;5056196;28;20448;-87
2021/05/05 03:57:46;;;;;;;8.40;7.70;;;9.70;95.50;;;;;;5055849;28;20286;-88
2021/05/05 04:00:12;;;;;;;7.57;6.90;;;9.70;95.20;;;;;;5038616;28;20440;-88
2021/05/05 04:02:38;;;;;;;8.00;7.40;;;9.70;95.30;;;;;;5039166;28;20447;-87
2021/05/05 04:05:05;;;;;;;7.63;7.03;;;9.70;95.20;;;;;;5038643;28;20845;-88
2021/05/05 04:07:30;;;;;;;7.47;6.87;;;9.60;95.30;;;;;;5054834;28;20177;-86
2021/05/05 04:09:57;;;;;;;8.70;8.10;;;9.70;95.40;;;;;;5055627;28;20820;-88
2021/05/05 04:12:23;;;;;;;7.90;7.10;;;9.70;95.30;;;;;;5037784;28;20170;-88
2021/05/05 04:14:49;;;;;;;7.63;7.03;;;9.60;95.40;;;;;;5055055;28;20460;-88
2021/05/05 04:17:33;;;;;;;9.63;8.70;;;9.60;95.60;;;;;;5054945;28;20507;-87
2021/05/05 04:20:19;;;;;;;7.50;6.90;;;9.60;95.40;;;;;;5055635;28;20731;-87
2021/05/05 04:23:04;;;;;;;8.07;7.47;;;9.60;95.40;;;;;;5055232;28;20452;-87
2021/05/05 04:25:49;;;;;;;7.10;6.60;;;9.60;95.40;;;;;;5054836;28;20814;-87
2021/05/05 04:28:14;;;;;;;8.50;7.90;;;9.60;95.50;;;;;;5055348;28;20770;-88
2021/05/05 04:30:40;;;;;;;7.63;6.93;;;9.60;95.40;;;;;;5054333;28;20408;-87
2021/05/05 04:33:07;;;;;;;7.60;6.90;;;9.60;95.50;;;;;;5037492;28;20173;-88
2021/05/05 04:35:33;;;;;;;7.70;7.10;;;9.60;95.70;;;;;;5054465;28;20420;-87
2021/05/05 04:37:59;;;;;;;8.33;7.73;;;9.60;96.00;;;;;;5054352;28;20461;-87
2021/05/05 04:40:24;;;;;;;7.00;6.50;;;9.60;96.00;;;;;;5054685;28;20610;-87
2021/05/05 04:42:50;;;;;;;7.90;7.20;;;9.60;95.80;;;;;;5054646;28;20177;-87
2021/05/05 04:45:16;;;;;;;8.27;7.50;;;9.50;96.20;;;;;;5054598;28;20180;-87
2021/05/05 04:47:42;;;;;;;8.03;7.33;;;9.60;96.20;;;;;;5036206;28;20193;-88
2021/05/05 04:50:10;;;;;;;8.07;7.30;;;9.60;96.10;;;;;;5037640;28;20184;-94
2021/05/05 04:52:36;;;;;;;8.47;7.77;;;9.50;95.90;;;;;;5036443;28;20178;-94
2021/05/05 04:55:02;;;;;;;7.73;7.13;;;9.50;96.00;;;;;;5040325;28;20410;-94
2021/05/05 04:57:28;;;;;;;7.47;6.90;;;9.60;96.10;;;;;;5055085;28;20505;-93
2021/05/05 04:59:53;;;;;;;10.33;8.07;;;9.60;95.90;;;;;;5037070;28;20412;-93
2021/05/05 05:02:19;;;;;;;7.97;7.27;;;9.60;95.80;;;;;;5037266;28;20235;-92
2021/05/05 05:04:45;;;;;;;11.50;7.50;;;9.60;95.60;;;;;;5037399;28;20614;-94
2021/05/05 05:07:11;;;;;;;7.67;7.07;;;9.60;95.40;;;;;;5021293;28;20185;-94
2021/05/05 05:09:36;;;;;;;7.97;7.27;;;9.70;95.40;;;;;;5036651;28;20259;-93
2021/05/05 05:12:02;;;;;;;8.60;7.80;;;9.60;95.30;;;;;;5037789;28;20404;-94
2021/05/05 05:14:28;;;;;;;8.10;7.40;;;9.60;95.40;;;;;;5055251;28;20178;-95
2021/05/05 05:16:54;;;;;;;8.60;8.00;;;9.70;95.70;;;;;;5053798;28;20694;-93
2021/05/05 05:19:19;;;;;;;9.20;8.30;;;9.70;95.50;;;;;;5027588;28;20182;-93
2021/05/05 05:21:45;;;;;;;9.07;8.25;;;9.70;95.40;;;;;;5034952;28;20776;-83
2021/05/05 05:24:11;;;;;;;10.83;9.30;;;9.80;95.70;;;;;;5053333;28;20256;-86
2021/05/05 05:26:37;;;;;;;10.07;9.17;;;10.10;97.90;;;;;;5035524;28;20435;-85
2021/05/05 05:29:03;;;;;;;8.87;8.10;;;10.40;96.80;;;;;;5053754;28;20412;-86
2021/05/05 05:31:29;;;;;;;10.03;9.23;;;10.70;96.80;;;;;;5035934;28;20189;-84
2021/05/05 05:33:55;;;;;;;10.20;8.70;;;11.10;95.40;;;;;;5035317;28;20818;-84
2021/05/05 05:36:21;;;;;;;10.20;9.30;;;11.40;95.10;;;;;;5053983;28;20179;-83
2021/05/05 05:38:46;;;;;;;10.47;9.67;;;11.70;93.30;;;;;;5052894;28;20232;-85
2021/05/05 05:41:12;;;;;;;10.17;7.80;;;11.80;92.40;;;;;;5053963;28;20185;-84
2021/05/05 05:43:38;;;;;;;8.33;7.53;;;12.10;92.50;;;;;;5053166;28;20209;-85
2021/05/05 05:46:04;;;;;;;10.80;8.60;;;12.30;91.90;;;;;;5053257;28;20424;-84
2021/05/05 05:48:30;;;;;;;6.93;6.33;;;12.50;91.30;;;;;;5035417;28;20239;-88
2021/05/05 05:50:56;;;;;;;7.60;6.97;;;12.70;91.40;;;;;;5052691;28;20206;-89
2021/05/05 05:53:22;;;;;;;7.50;6.90;;;12.50;88.50;;;;;;5053282;28;20268;-84
2021/05/05 05:55:47;;;;;;;7.57;6.80;;;12.30;88.30;;;;;;5052947;28;20553;-84
2021/05/05 05:58:13;;;;;;;8.80;8.10;;;11.90;89.40;;;;;;5053493;28;21092;-84
2021/05/05 06:00:39;;;;;;;9.43;7.60;;;11.80;90.40;;;;;;5034428;28;20182;-86
2021/05/05 06:03:05;;;;;;;8.17;7.37;;;11.60;91.20;;;;;;5053070;28;20184;-83
2021/05/05 06:05:32;;;;;;;7.43;6.80;;;11.30;91.60;;;;;;5035065;28;20182;-83
2021/05/05 06:07:58;;;;;;;6.23;5.73;;;11.10;91.80;;;;;;5051780;28;20426;-83
2021/05/05 06:10:24;;;;;;;5.17;4.80;;;10.80;92.30;;;;;;5035156;28;20823;-83
2021/05/05 06:12:50;;;;;;;5.87;5.57;;;10.60;92.50;;;;;;5017475;28;20813;-83
2021/05/05 06:15:16;;;;;;;3.27;3.07;;;10.50;92.80;;;;;;5052808;28;20421;-84
2021/05/05 06:17:42;;;;;;;3.67;3.47;;;10.20;93.00;;;;;;5051953;28;20224;-84
2021/05/05 06:20:09;;;;;;;3.67;3.47;;;10.10;93.30;;;;;;5052225;28;20512;-84
2021/05/05 06:22:35;;;;;;;4.57;4.00;;;10.00;93.70;;;;;;5051736;28;20463;-84
2021/05/05 06:25:03;;;;;;;4.40;4.10;;;9.80;94.60;;;;;;5067730;28;20484;-84
2021/05/05 06:27:29;;;;;;;4.77;4.47;;;9.70;95.40;;;;;;5072745;28;20773;-84
2021/05/05 06:29:54;;;;;;;5.43;5.03;;;9.60;95.70;;;;;;5069968;28;20419;-83
2021/05/05 06:32:20;;;;;;;5.33;4.80;;;9.50;96.40;;;;;;5071339;28;20468;-85
2021/05/05 06:34:46;;;;;;;6.00;5.60;;;9.50;96.90;;;;;;5053971;28;20407;-84
2021/05/05 06:37:12;;;;;;;6.63;6.10;;;9.50;96.70;;;;;;5072435;28;20458;-83
2021/05/05 06:39:37;;;;;;;7.10;6.37;;;9.50;97.20;;;;;;5073215;28;20264;-83
2021/05/05 06:42:03;;;;;;;8.40;7.83;;;9.40;97.50;;;;;;5070961;28;20173;-83
2021/05/05 06:44:29;;;;;;;6.93;6.43;;;9.50;98.00;;;;;;5071566;28;20177;-83
2021/05/05 06:46:55;;;;;;;7.70;7.10;;;9.50;97.90;;;;;;5072146;28;20479;-84
2021/05/05 06:49:23;;;;;;;10.20;9.50;;;9.50;98.20;;;;;;5071514;28;20176;-84
2021/05/05 06:51:49;;;;;;;8.40;7.80;;;9.60;98.60;;;;;;5072113;28;20391;-84
2021/05/05 06:54:15;;;;;;;8.53;7.80;;;9.60;98.20;;;;;;5070668;28;20415;-89
2021/05/05 06:56:41;;;;;;;9.37;8.43;;;9.60;98.20;;;;;;5071294;28;20747;-89
2021/05/05 06:59:09;;;;;;;11.07;10.17;;;9.70;98.70;;;;;;5072602;28;21004;-90
2021/05/05 07:01:37;;;;;;;9.13;8.33;;;9.70;98.80;;;;;;5072606;28;20183;-90
2021/05/05 07:04:07;;;;;;;10.00;9.00;;;9.70;98.70;;;;;;5071926;28;20427;-90
2021/05/05 07:06:34;;;;;;;10.10;9.20;;;9.80;98.50;;;;;;5072717;28;20415;-90
2021/05/05 07:09:00;;;;;;;13.70;12.30;;;9.80;98.90;;;;;;5070461;28;20899;-91
2021/05/05 07:11:27;;;;;;;10.70;9.60;;;9.70;98.70;;;;;;5072563;28;20434;-90
2021/05/05 07:13:53;;;;;;;8.53;7.73;;;9.60;99.10;;;;;;5072241;28;20875;-92
2021/05/05 07:16:21;;;;;;;8.80;8.20;;;9.60;98.70;;;;;;5072468;28;20427;-87
2021/05/05 07:18:47;;;;;;;7.50;6.80;;;9.60;98.70;;;;;;5071234;28;20846;-94
2021/05/05 07:21:14;;;;;;;8.60;7.90;;;9.70;98.80;;;;;;5073261;28;20403;-92
2021/05/05 07:23:40;;;;;;;6.10;5.70;;;9.60;99.20;;;;;;5065659;28;20460;-93
2021/05/05 07:26:05;;;;;;;4.67;4.37;;;9.50;99.50;;;;;;5051159;28;20974;-92
2021/05/05 07:28:31;;;;;;;4.70;4.40;;;9.30;99.10;;;;;;5052111;28;20209;-94
2021/05/05 07:30:58;;;;;;;4.57;4.37;;;9.20;98.90;;;;;;5034031;28;20602;-93
2021/05/05 07:33:24;;;;;;;5.17;4.77;;;9.20;99.00;;;;;;5052460;28;20443;-92
2021/05/05 07:35:53;;;;;;;4.37;4.17;;;9.20;98.90;;;;;;5052343;28;20451;-92
2021/05/05 07:46:28;;;;;;;4.10;3.90;;;9.00;98.90;;;;;;5053015;28;20398;-91
2021/05/05 07:48:55;;;;;;;3.80;3.57;;;9.00;98.60;;;;;;5051795;28;20463;-91
2021/05/05 07:51:22;;;;;;;3.90;3.70;;;9.00;98.60;;;;;;5052679;28;20447;-92
2021/05/05 07:53:48;;;;;;;4.40;4.20;;;8.80;98.90;;;;;;5052062;28;20831;-90
2021/05/05 07:56:14;;;;;;;4.53;4.33;;;8.80;99.00;;;;;;5052713;28;20754;-91
2021/05/05 07:58:42;;;;;;;4.63;4.43;;;8.80;99.70;;;;;;5053532;28;20464;-89
2021/05/05 08:01:09;;;;;;;4.77;4.50;;;8.80;99.60;;;;;;5052106;28;20946;-87
2021/05/05 08:03:35;;;;;;;5.20;4.80;;;8.80;99.60;;;;;;5051877;28;20935;-89
2021/05/05 08:06:01;;;;;;;6.03;5.70;;;8.80;99.90;;;;;;5051832;28;20416;-89
2021/05/05 08:08:27;;;;;;;6.30;5.80;;;8.90;99.90;;;;;;5052542;28;20766;-90
2021/05/05 08:10:52;;;;;;;5.10;4.80;;;9.00;99.90;;;;;;5034468;28;20416;-90
2021/05/05 08:13:18;;;;;;;6.80;6.30;;;9.00;99.90;;;;;;5061710;28;20170;-89
2021/05/05 08:15:45;;;;;;;5.70;5.40;;;9.10;99.90;;;;;;5060777;28;20189;-91
2021/05/05 08:18:10;;;;;;;5.23;4.87;;;9.10;99.90;;;;;;5039603;28;20732;-89
2021/05/05 08:20:37;;;;;;;5.47;5.10;;;9.10;99.90;;;;;;5055364;28;20463;-91
2021/05/05 08:23:05;;;;;;;5.87;5.47;;;9.20;99.90;;;;;;5036906;28;20177;-90
2021/05/05 08:25:30;;;;;;;4.83;4.40;;;9.30;99.60;;;;;;5055465;28;20885;-90
2021/05/05 08:27:56;;;;;;;5.67;5.37;;;9.20;99.70;;;;;;5054362;28;20470;-90
2021/05/05 08:30:24;;;;;;;4.53;4.33;;;9.20;99.90;;;;;;5055739;28;20454;-91
2021/05/05 08:32:50;;;;;;;5.90;5.60;;;9.00;99.90;;;;;;5054849;28;20698;-92
2021/05/05 08:35:16;;;;;;;3.90;3.70;;;9.10;99.90;;;;;;5055574;28;20400;-90
2021/05/05 08:37:43;;;;;;;5.77;5.37;;;9.10;99.90;;;;;;5055228;28;20556;-91
2021/05/05 08:40:10;;;;;;;3.67;3.47;;;9.10;99.90;;;;;;5037033;28;20405;-90
2021/05/05 08:42:41;;;;;;;4.03;3.77;;;9.10;99.90;;;;;;5037814;28;20412;-91
2021/05/05 08:45:19;;;;;;;4.33;4.13;;;9.20;99.60;;;;;;5053928;28;20432;-91
2021/05/05 08:47:47;;;;;;;3.50;3.40;;;9.30;99.70;;;;;;5054871;28;20408;-91
2021/05/05 08:50:14;;;;;;;4.97;4.67;;;9.30;99.80;;;;;;5054983;28;20741;-92
2021/05/05 08:52:41;;;;;;;2.77;2.67;;;9.30;99.20;;;;;;5055220;28;20411;-91
2021/05/05 08:55:13;;;;;;;4.47;4.27;;;9.40;98.80;;;;;;5054451;28;20915;-91
2021/05/05 08:57:39;;;;;;;2.67;2.57;;;9.40;99.40;;;;;;5055232;28;20988;-91
2021/05/05 09:00:07;;;;;;;3.13;2.93;;;9.60;99.90;;;;;;5054691;28;20409;-91
2021/05/05 09:02:33;;;;;;;4.40;4.20;;;9.90;99.60;;;;;;5037438;28;20420;-92
2021/05/05 09:05:03;;;;;;;2.50;2.40;;;10.10;98.00;;;;;;5036616;28;20431;-91
2021/05/05 09:07:34;;;;;;;2.70;2.50;;;10.30;98.20;;;;;;5055085;28;20889;-91
2021/05/05 09:10:11;;;;;;;2.50;2.40;;;10.60;98.20;;;;;;5054322;28;20406;-92
2021/05/05 09:12:40;;;;;;;3.90;3.70;;;10.80;97.70;;;;;;5054805;28;20890;-92
2021/05/05 09:15:11;;;;;;;2.70;2.60;;;11.20;97.60;;;;;;5054412;28;20510;-92
2021/05/05 09:17:43;;;;;;;3.10;2.90;;;11.40;96.40;;;;;;5054816;28;20454;-92
2021/05/05 09:20:08;;;;;;;3.10;3.00;;;11.60;95.40;;;;;;5036627;28;20537;-92
2021/05/05 09:22:44;;;;;;;3.50;3.30;;;11.80;96.10;;;;;;5054463;28;20402;-93
2021/05/05 09:25:12;;;;;;;3.87;3.67;;;12.10;95.20;;;;;;5053840;28;20229;-92
2021/05/05 09:27:39;;;;;;;3.53;2.90;;;12.20;93.40;;;;;;5054791;28;20499;-92
2021/05/05 09:30:27;;;;;;;4.07;3.77;;;12.10;93.20;;;;;;5054247;28;20436;-92
2021/05/05 09:32:54;;;;;;;4.33;4.03;;;12.00;92.30;;;;;;5035580;28;20912;-91
2021/05/05 09:35:29;;;;;;;3.87;3.57;;;11.90;93.00;;;;;;5054717;28;20413;-92
2021/05/05 09:38:01;;;;;;;5.43;4.40;;;11.70;93.90;;;;;;5036283;28;20476;-90
2021/05/05 09:40:27;;;;;;;3.80;3.60;;;11.70;93.50;;;;;;5054653;28;20409;-91
2021/05/05 09:42:53;;;;;;;4.30;4.00;;;11.60;93.10;;;;;;5035928;28;20444;-91
2021/05/05 09:45:20;;;;;;;5.20;4.90;;;11.60;94.20;;;;;;5054539;28;20416;-91
2021/05/05 09:47:57;;;;;;;5.03;4.73;;;11.50;93.80;;;;;;5054336;28;20828;-92
2021/05/05 09:50:40;;;;;;;7.50;5.23;;;11.20;93.20;;;;;;5054168;28;20408;-92
2021/05/05 09:53:25;;;;;;;5.17;4.50;;;11.20;92.50;;;;;;5054059;28;20747;-93
2021/05/05 09:55:57;;;;;;;12.67;5.60;;;11.20;92.90;;;;;;5054206;28;20875;-86
2021/05/05 09:58:36;;;;;;;6.77;4.50;;;11.10;93.30;;;;;;5036984;28;20453;-92
2021/05/05 10:01:11;;;;;;;6.93;5.20;;;11.10;93.00;;;;;;5038747;28;20428;-92
2021/05/05 10:03:49;;;;;;;5.40;4.90;;;11.10;93.40;;;;;;5059997;28;20738;-91
2021/05/05 10:06:28;;;;;;;6.13;4.90;;;11.00;93.30;;;;;;5059495;28;20389;-91
2021/05/05 10:08:58;;;;;;;6.93;5.67;;;11.00;93.40;;;;;;5060092;28;20549;-90
2021/05/05 10:11:36;;;;;;;5.83;5.33;;;11.10;94.20;;;;;;5059309;28;20431;-92
2021/05/05 10:14:13;;;;;;;10.17;5.50;;;11.10;93.20;;;;;;5055796;28;20403;-92
2021/05/05 10:16:44;;;;;;;6.53;5.67;;;11.10;93.20;;;;;;5055041;28;20471;-92
2021/05/05 10:19:34;;;;;;;7.43;6.83;;;11.10;93.00;;;;;;5055745;28;20770;-91
2021/05/05 10:22:03;;;;;;;5.90;5.50;;;11.00;94.00;;;;;;5055014;28;20393;-91
2021/05/05 10:24:35;;;;;;;7.40;6.90;;;11.00;95.00;;;;;;5060756;28;20507;-91
2021/05/05 10:27:05;;;;;;;6.90;6.20;;;10.90;95.60;;;;;;5074351;28;20437;-91
2021/05/05 10:29:35;;;;;;;7.27;6.60;;;11.00;96.10;;;;;;5072869;28;20799;-91
2021/05/05 10:32:09;;;;;;;7.47;6.70;;;10.90;95.20;;;;;;5078760;28;20407;-91
2021/05/05 10:34:39;;;;;;;6.63;5.50;;;10.90;96.60;;;;;;5081394;28;20439;-91
2021/05/05 10:37:05;;;;;;;5.00;4.60;;;11.10;97.50;;;;;;5081503;28;20429;-91
2021/05/05 10:39:36;;;;;;;7.40;6.80;;;11.30;96.20;;;;;;5088280;28;20412;-91
2021/05/05 10:42:23;;;;;;;5.70;5.20;;;11.40;95.10;;;;;;5084407;28;20409;-91
2021/05/05 10:44:58;;;;;;;5.73;5.30;;;11.40;94.30;;;;;;5082759;28;20422;-91
2021/05/05 10:47:33;;;;;;;6.60;6.10;;;11.40;94.10;;;;;;5076240;28;20411;-92
2021/05/05 10:50:01;;;;;;;4.60;4.20;;;11.50;95.30;;;;;;5075991;28;20395;-91
2021/05/05 10:52:29;;;;;;;5.70;5.30;;;11.60;93.80;;;;;;5074917;28;20908;-91
2021/05/05 10:54:56;;;;;;;7.93;7.30;;;11.80;93.60;;;;;;5075530;28;20399;-85
2021/05/05 10:57:24;;;;;;;4.63;4.23;;;12.10;93.80;;;;;;5078049;28;20486;-92
2021/05/05 11:00:03;;;;;;;7.47;7.00;;;12.30;92.90;;;;;;5077890;28;20420;-92
2021/05/05 11:02:38;;;;;;;5.93;5.40;;;12.50;93.10;;;;;;5077468;28;20405;-91
2021/05/05 11:05:14;;;;;;;5.70;5.17;;;12.70;91.10;;;;;;5074721;28;20413;-92
2021/05/05 11:07:59;;;;;;;5.30;4.90;;;12.60;90.70;;;;;;5074899;28;20409;-92
2021/05/05 11:10:31;;;;;;;5.73;4.63;;;12.50;88.90;;;;;;5076000;28;20418;-92
2021/05/05 11:13:19;;;;;;;4.27;3.97;;;12.50;89.40;;;;;;5073729;28;20427;-92
2021/05/05 11:15:45;;;;;;;3.10;2.90;;;12.40;88.20;;;;;;5079478;28;20419;-93
2021/05/05 11:18:38;;;;;;;2.43;2.30;;;12.40;87.90;;;;;;5081093;28;20485;-92
2021/05/05 11:21:06;;;;;;;2.40;2.30;;;12.30;88.20;;;;;;5087575;28;20403;-92
2021/05/05 11:26:21;;;;;;;5.37;3.07;;;12.30;85.40;;;;;;5067721;28;20415;-91
2021/05/05 11:28:58;;;;;;;4.10;3.17;;;12.30;86.50;;;;;;5063708;28;20477;-92
2021/05/05 11:31:46;;;;;;;3.70;3.40;;;12.40;87.00;;;;;;5061874;28;20405;-91
2021/05/05 11:34:33;;;;;;;4.17;3.87;;;12.30;86.40;;;;;;5056199;28;20755;-91
2021/05/05 11:36:59;;;;;;;4.13;3.83;;;12.20;87.90;;;;;;5042013;28;20473;-90
2021/05/05 11:39:44;;;;;;;4.60;4.30;;;12.10;88.90;;;;;;5038301;28;20430;-92
2021/05/05 11:42:12;;;;;;;4.70;4.40;;;11.90;90.20;;;;;;5055323;28;20424;-92
2021/05/05 11:44:51;;;;;;;5.03;4.70;;;11.80;90.20;;;;;;5055177;28;20412;-91
2021/05/05 11:47:21;;;;;;;5.07;4.60;;;11.70;90.60;;;;;;5055942;28;20410;-92
2021/05/05 11:49:49;;;;;;;7.43;5.47;;;11.50;90.70;;;;;;5058232;28;20408;-92
2021/05/05 11:52:22;;;;;;;5.70;5.20;;;11.30;91.80;;;;;;5039650;28;21015;-90
2021/05/05 11:54:51;;;;;;;6.70;6.03;;;11.10;91.70;;;;;;5059445;28;20508;-92
2021/05/05 11:57:18;;;;;;;6.37;5.80;;;11.10;92.20;;;;;;5056811;28;20458;-92
2021/05/05 11:59:44;;;;;;;8.20;5.30;;;11.00;92.20;;;;;;5057520;28;20443;-92
2021/05/05 12:02:11;;;;;;;5.37;4.87;;;11.00;92.20;;;;;;5056349;28;20501;-92
2021/05/05 12:04:42;;;;;;;4.30;4.00;;;10.90;93.00;;;;;;5056481;28;20820;-92
2021/05/05 12:07:11;;;;;;;4.33;3.93;;;10.70;93.60;;;;;;5056472;28;20455;-92
2021/05/05 12:09:41;;;;;;;4.30;3.90;;;10.60;94.20;;;;;;5040664;28;20420;-93
2021/05/05 12:12:29;;;;;;;3.90;3.67;;;10.40;94.00;;;;;;5059055;28;20409;-92
2021/05/05 12:15:05;;;;;;;4.47;3.70;;;10.20;94.10;;;;;;5056823;28;20425;-92
2021/05/05 12:17:43;;;;;;;3.90;3.70;;;10.20;94.60;;;;;;5056195;28;20538;-91
2021/05/05 12:20:11;;;;;;;3.73;2.93;;;10.20;94.50;;;;;;5038543;28;20411;-92
2021/05/05 12:22:54;;;;;;;3.60;3.50;;;10.00;94.70;;;;;;5056140;28;20413;-92
2021/05/05 12:25:32;;;;;;;2.50;2.30;;;9.90;94.90;;;;;;5055206;28;20701;-92
2021/05/05 12:28:10;;;;;;;5.90;4.00;;;10.00;95.00;;;;;;5039280;28;20416;-93
2021/05/05 12:30:42;;;;;;;2.40;2.30;;;10.00;94.70;;;;;;5055971;28;20405;-92
2021/05/05 12:33:08;;;;;;;5.63;5.23;;;10.10;94.40;;;;;;5038460;28;20741;-93
2021/05/05 12:35:35;;;;;;;3.30;3.10;;;10.20;94.50;;;;;;5056144;28;20798;-92
2021/05/05 12:38:10;;;;;;;6.20;5.90;;;10.40;94.00;;;;;;5038085;28;20466;-87
2021/05/05 12:40:36;;;;;;;3.40;3.30;;;10.50;93.60;;;;;;5038218;28;20825;-92
2021/05/05 12:43:21;;;;;;;6.40;5.37;;;10.50;94.50;;;;;;5055181;28;20409;-92
2021/05/05 12:45:50;;;;;;;5.17;4.67;;;10.80;94.70;;;;;;5037268;28;20430;-93
2021/05/05 12:48:28;;;;;;;3.93;3.30;;;10.90;94.30;;;;;;5055459;28;20810;-92
2021/05/05 12:51:03;;;;;;;3.27;3.07;;;11.10;93.10;;;;;;5055700;28;20397;-90
2021/05/05 12:53:53;;;;;;;5.50;5.00;;;11.20;93.10;;;;;;5055564;28;20447;-90
2021/05/05 12:56:21;;;;;;;5.00;4.70;;;11.30;93.00;;;;;;5055221;28;20787;-90
2021/05/05 12:58:48;;;;;;;4.00;3.67;;;11.60;93.00;;;;;;5055137;28;20843;-90
2021/05/05 13:01:16;;;;;;;3.37;3.07;;;11.80;93.20;;;;;;5036648;28;20397;-91
2021/05/05 13:03:46;;;;;;;4.70;4.40;;;12.10;93.10;;;;;;5055247;28;20466;-92
2021/05/05 13:06:14;;;;;;;3.77;3.27;;;12.30;92.40;;;;;;5056718;28;20508;-92
2021/05/05 13:11:32;;;;;;;5.67;5.20;;;12.20;91.30;;;;;;5036495;28;20415;-91